Terminal Aerodrome Forecast
Issued by NWS Charleston, WV

Current Version | Previous Version | Graphics & Text | Print | Product List | Glossary On
Versions: 1 2 3 4 5 6 7 8 9 10 11 12 13 14 15 16 17 18 19 20 21 22 23 24 25 26 27
169
FTUS41 KRLX 271139
TAFHTS
TAF
KHTS 271139Z 2712/2812 20003KT 6SM BR BKN035
     FM271400 22005KT P6SM SCT045
     FM272100 20005KT P6SM SHRA VCTS BKN045CB
     FM280400 17003KT 4SM SHRA BKN035=

USA.gov is the U.S. government's official web portal to all federal, state and local government web resources and services.